Time;durP1;ratioP1;P1;durP2;ratioP2;P2;SDS_P1;SDS_P2;PMS_P1;PMS_P2;Temp;Humidity;BMP_temperature;BMP_pressure;BME280_temperature;BME280_humidity;BME280_pressure;Samples;Min_cycle;Max_cycle;Signal;HPM_P1;HPM_P2
2024/01/06 00:00:11;;;;;;;2.42;2.00;;;;;;;6.91;58.42;93234.53;523674;28;903;-69
2024/01/06 00:00:26;;;;;;;2.25;1.83;;;;;;;6.87;58.56;93238.31;523799;28;742;-69
2024/01/06 00:00:42;;;;;;;2.37;2.00;;;;;;;6.85;58.38;93237.38;523761;28;829;-69
2024/01/06 00:00:57;;;;;;;3.10;2.20;;;;;;;6.85;58.46;93240.13;523838;28;817;-69
2024/01/06 00:01:16;;;;;;;2.83;2.20;;;;;;;6.86;58.51;93236.13;523745;28;919;-69
2024/01/06 00:01:31;;;;;;;2.30;2.05;;;;;;;6.84;58.31;93233.16;523724;28;817;-69
2024/01/06 00:01:47;;;;;;;2.53;2.10;;;;;;;6.88;58.66;93239.06;523785;28;782;-69
2024/01/06 00:02:03;;;;;;;2.92;2.10;;;;;;;6.92;58.28;93244.97;523773;28;845;-69
2024/01/06 00:02:18;;;;;;;3.07;2.20;;;;;;;6.94;58.15;93239.69;523788;28;853;-69
2024/01/06 00:02:33;;;;;;;3.17;2.33;;;;;;;6.95;57.91;93241.19;523866;28;1061;-69
2024/01/06 00:02:51;;;;;;;3.90;2.20;;;;;;;6.92;58.08;93239.47;523882;28;893;-69
2024/01/06 00:03:07;;;;;;;3.92;2.13;;;;;;;6.93;58.19;93237.47;524177;28;975;-69
2024/01/06 00:03:22;;;;;;;2.83;2.10;;;;;;;6.93;58.04;93251.22;524241;28;912;-69
2024/01/06 00:03:37;;;;;;;2.30;2.10;;;;;;;6.89;58.47;93233.03;524135;28;1167;-69
2024/01/06 00:03:53;;;;;;;2.40;2.00;;;;;;;6.91;58.24;93240.75;524254;28;751;-69
2024/01/06 00:04:08;;;;;;;2.60;1.80;;;;;;;6.92;58.09;93242.22;524073;28;842;-69
2024/01/06 00:04:24;;;;;;;2.38;1.88;;;;;;;6.91;57.91;93243.47;525150;28;1183;-69
2024/01/06 00:04:39;;;;;;;2.53;1.87;;;;;;;6.93;58.08;93237.47;526188;28;809;-69
2024/01/06 00:04:55;;;;;;;2.83;1.92;;;;;;;6.94;58.08;93239.69;526312;28;1044;-69
2024/01/06 00:05:10;;;;;;;3.03;2.00;;;;;;;6.95;58.10;93237.69;526321;28;766;-69
2024/01/06 00:05:25;;;;;;;2.75;1.73;;;;;;;6.93;58.08;93237.47;526447;28;774;-69
2024/01/06 00:05:41;;;;;;;2.33;1.63;;;;;;;6.93;58.23;93229.25;526055;28;1141;-69
2024/01/06 00:05:56;;;;;;;2.23;1.80;;;;;;;6.93;58.30;93235.47;526398;28;754;-69
2024/01/06 00:06:15;;;;;;;3.08;1.90;;;;;;;6.93;58.53;93232.72;526191;28;1965;-69
2024/01/06 00:06:31;;;;;;;3.05;1.88;;;;;;;6.92;57.96;93228.50;526267;28;955;-69
2024/01/06 00:06:46;;;;;;;2.17;1.77;;;;;;;6.95;57.96;93235.69;526357;28;957;-68
2024/01/06 00:07:02;;;;;;;2.45;1.70;;;;;;;6.97;57.94;93235.16;526237;28;808;-69
2024/01/06 00:07:17;;;;;;;2.27;1.67;;;;;;;6.98;57.88;93234.63;526298;28;931;-69
2024/01/06 00:07:33;;;;;;;3.47;2.95;;;;;;;7.01;57.86;93235.56;526328;28;750;-69
2024/01/06 00:07:49;;;;;;;5.87;5.27;;;;;;;7.03;57.69;93231.03;526262;28;864;-69
2024/01/06 00:08:06;;;;;;;5.93;5.22;;;;;;;7.05;57.64;93233.97;526354;28;881;-69
2024/01/06 00:08:21;;;;;;;4.10;3.58;;;;;;;7.08;57.68;93232.91;526147;28;882;-69
2024/01/06 00:08:36;;;;;;;3.30;3.00;;;;;;;7.08;57.57;93235.63;526317;28;762;-69
2024/01/06 00:08:54;;;;;;;3.20;2.90;;;;;;;7.07;57.57;93239.66;526315;28;1178;-69
2024/01/06 00:09:10;;;;;;;2.90;2.60;;;;;;;7.07;57.65;93239.66;526223;28;905;-69
2024/01/06 00:09:25;;;;;;;2.90;2.60;;;;;;;7.07;57.66;93233.44;526349;28;860;-69
2024/01/06 00:09:41;;;;;;;3.33;3.03;;;;;;;7.08;57.70;93243.16;526089;28;825;-69
2024/01/06 00:09:56;;;;;;;3.60;3.00;;;;;;;7.06;57.82;93245.69;526322;28;853;-69
2024/01/06 00:10:12;;;;;;;3.22;2.47;;;;;;;7.05;57.91;93242.22;526315;28;762;-69
2024/01/06 00:10:27;;;;;;;2.67;2.33;;;;;;;7.06;57.83;93245.69;526347;28;798;-69
2024/01/06 00:10:42;;;;;;;2.83;2.10;;;;;;;7.06;57.88;93245.69;526357;28;1240;-69
2024/01/06 00:10:58;;;;;;;2.72;1.88;;;;;;;7.07;57.85;93245.16;526292;28;766;-69
2024/01/06 00:11:13;;;;;;;2.00;1.70;;;;;;;7.10;57.65;93248.84;526240;28;837;-69
2024/01/06 00:11:29;;;;;;;2.45;1.80;;;;;;;7.05;57.63;93239.47;526309;28;790;-69
2024/01/06 00:11:44;;;;;;;2.33;1.70;;;;;;;7.11;57.70;93255.81;526438;28;801;-69
2024/01/06 00:12:01;;;;;;;2.80;1.70;;;;;;;7.11;57.67;93251.06;526252;28;869;-69
2024/01/06 00:12:18;;;;;;;3.15;2.00;;;;;;;7.12;57.59;93251.81;526276;28;826;-69
2024/01/06 00:12:33;;;;;;;2.10;1.90;;;;;;;7.13;57.44;93248.53;526326;28;874;-69
2024/01/06 00:12:49;;;;;;;2.53;1.70;;;;;;;7.13;57.54;93245.03;526231;28;865;-69
2024/01/06 00:13:04;;;;;;;2.80;1.80;;;;;;;7.13;57.48;93245.03;526341;28;802;-69
2024/01/06 00:13:20;;;;;;;2.80;1.88;;;;;;;7.12;57.13;93249.81;526318;28;778;-69
2024/01/06 00:13:36;;;;;;;2.67;1.80;;;;;;;7.14;57.39;93247.25;526309;28;825;-69
2024/01/06 00:13:51;;;;;;;2.38;1.80;;;;;;;7.16;57.45;93243.97;526200;28;801;-69
2024/01/06 00:14:06;;;;;;;1.97;1.77;;;;;;;7.16;57.31;93239.22;526307;28;919;-69
2024/01/06 00:14:22;;;;;;;1.80;1.70;;;;;;;7.18;57.27;93246.94;526350;28;763;-69
2024/01/06 00:14:37;;;;;;;1.87;1.77;;;;;;;7.15;57.22;93234.25;526229;28;753;-69
2024/01/06 00:14:53;;;;;;;2.10;1.88;;;;;;;7.17;57.08;93240.69;526291;28;830;-69
2024/01/06 00:15:08;;;;;;;2.33;1.77;;;;;;;7.16;57.23;93241.97;526241;28;908;-69
2024/01/06 00:15:24;;;;;;;2.22;1.60;;;;;;;7.14;57.23;93238.28;526314;28;790;-69
2024/01/06 00:15:39;;;;;;;1.70;1.50;;;;;;;7.10;57.02;93230.38;526252;28;904;-69
2024/01/06 00:15:55;;;;;;;1.45;1.35;;;;;;;7.09;57.18;93236.38;526360;28;813;-69
2024/01/06 00:16:10;;;;;;;2.13;1.50;;;;;;;7.07;57.31;93231.44;526308;28;786;-69
2024/01/06 00:16:26;;;;;;;2.08;1.50;;;;;;;7.07;57.38;93231.44;526292;28;870;-68
2024/01/06 00:16:41;;;;;;;1.33;1.20;;;;;;;7.07;57.36;93233.44;526210;28;916;-69
2024/01/06 00:16:57;;;;;;;1.43;1.23;;;;;;;7.06;57.27;93240.22;526327;28;770;-69
2024/01/06 00:17:12;;;;;;;1.70;1.40;;;;;;;7.08;57.34;93237.66;526304;28;777;-69
2024/01/06 00:17:27;;;;;;;2.47;2.10;;;;;;;7.09;57.40;93236.38;526258;28;853;-69
2024/01/06 00:17:43;;;;;;;2.78;2.40;;;;;;;7.08;57.35;93238.38;526315;28;750;-69
2024/01/06 00:17:58;;;;;;;2.07;1.63;;;;;;;7.07;57.10;93231.44;526163;28;973;-69
2024/01/06 00:18:14;;;;;;;1.95;1.42;;;;;;;7.06;57.20;93238.19;526352;28;766;-69
2024/01/06 00:18:29;;;;;;;1.83;1.57;;;;;;;7.07;57.20;93244.41;526171;28;1163;-69
2024/01/06 00:18:46;;;;;;;1.77;1.50;;;;;;;7.05;57.20;93242.22;526317;28;915;-69
2024/01/06 00:19:02;;;;;;;1.90;1.55;;;;;;;7.02;57.55;93239.81;526298;28;880;-69
2024/01/06 00:19:17;;;;;;;1.98;1.50;;;;;;;6.96;57.95;93241.91;526267;28;821;-69
2024/01/06 00:19:33;;;;;;;1.50;1.20;;;;;;;6.95;57.91;93241.19;526270;28;872;-69
2024/01/06 00:19:51;;;;;;;1.50;1.20;;;;;;;6.96;57.93;93248.13;526225;28;782;-69
2024/01/06 00:20:07;;;;;;;3.65;1.85;;;;;;;6.98;57.84;93244.84;526274;28;928;-69
2024/01/06 00:20:22;;;;;;;3.67;2.42;;;;;;;6.99;57.98;93241.59;526272;28;865;-69
2024/01/06 00:20:38;;;;;;;2.90;2.60;;;;;;;7.01;58.10;93243.78;526283;28;829;-69
2024/01/06 00:20:54;;;;;;;2.45;2.10;;;;;;;7.03;57.99;93238.50;526237;28;861;-69
2024/01/06 00:21:09;;;;;;;2.45;2.00;;;;;;;7.01;57.86;93241.78;526307;28;817;-69
2024/01/06 00:21:25;;;;;;;2.33;2.10;;;;;;;7.00;57.79;93234.81;526295;28;861;-69
2024/01/06 00:21:40;;;;;;;2.13;1.92;;;;;;;6.99;57.81;93236.09;526245;28;814;-69
2024/01/06 00:21:55;;;;;;;1.80;1.53;;;;;;;6.97;57.78;93235.91;526375;28;794;-69
2024/01/06 00:22:11;;;;;;;1.70;1.40;;;;;;;6.93;58.09;93227.22;526145;28;861;-69
2024/01/06 00:22:26;;;;;;;1.73;1.50;;;;;;;6.93;58.03;93234.75;526259;28;794;-69
2024/01/06 00:22:44;;;;;;;1.58;1.30;;;;;;;6.93;57.98;93232.00;526308;28;841;-69
2024/01/06 00:22:59;;;;;;;1.98;1.15;;;;;;;6.92;58.03;93234.00;526218;28;912;-69
2024/01/06 00:23:15;;;;;;;2.03;1.40;;;;;;;6.94;57.88;93233.47;526354;28;844;-69
2024/01/06 00:23:30;;;;;;;1.50;1.40;;;;;;;6.85;58.08;93238.13;526083;28;880;-69
2024/01/06 00:23:45;;;;;;;1.43;1.23;;;;;;;6.85;57.91;93234.63;526379;28;753;-69
2024/01/06 00:24:01;;;;;;;1.40;1.30;;;;;;;6.85;57.94;93237.38;526266;28;841;-69
2024/01/06 00:24:16;;;;;;;2.07;1.70;;;;;;;6.85;57.98;93240.13;526263;28;924;-69
2024/01/06 00:24:32;;;;;;;3.05;2.67;;;;;;;6.86;58.01;93234.09;526237;28;793;-69
2024/01/06 00:24:48;;;;;;;4.07;3.67;;;;;;;6.89;58.16;93241.28;526194;28;809;-69
2024/01/06 00:25:04;;;;;;;5.43;4.55;;;;;;;6.93;58.06;93246.44;526231;28;773;-69
2024/01/06 00:25:19;;;;;;;6.47;3.90;;;;;;;6.94;57.90;93242.44;526247;28;774;-69
2024/01/06 00:25:34;;;;;;;4.60;2.57;;;;;;;6.96;57.91;93245.38;526342;28;818;-69
2024/01/06 00:25:50;;;;;;;2.70;2.43;;;;;;;6.96;57.63;93234.41;526270;28;806;-69
2024/01/06 00:26:05;;;;;;;3.35;2.80;;;;;;;6.96;57.46;93239.16;526328;28;1977;-69
2024/01/06 00:26:21;;;;;;;4.10;3.13;;;;;;;6.95;57.68;93243.94;526154;28;801;-70
2024/01/06 00:26:36;;;;;;;4.93;3.28;;;;;;;6.92;57.53;93231.25;526313;28;838;-69
2024/01/06 00:26:52;;;;;;;4.65;2.63;;;;;;;6.89;57.61;93232.31;526262;28;876;-69
2024/01/06 00:27:08;;;;;;;2.70;1.63;;;;;;;6.87;57.58;93227.34;526339;28;801;-69
2024/01/06 00:27:23;;;;;;;1.55;1.40;;;;;;;6.87;57.73;93232.09;526293;28;1545;-69
2024/01/06 00:27:39;;;;;;;1.77;1.67;;;;;;;6.82;57.67;93230.22;524224;28;1183;-69
2024/01/06 00:27:54;;;;;;;2.90;1.85;;;;;;;6.81;57.63;93229.47;524166;28;841;-69
2024/01/06 00:28:10;;;;;;;2.90;1.70;;;;;;;6.83;57.80;93240.66;524174;28;751;-69
2024/01/06 00:28:25;;;;;;;2.10;1.50;;;;;;;6.73;57.73;93216.94;524135;28;822;-69
2024/01/06 00:28:40;;;;;;;1.83;1.33;;;;;;;6.78;57.97;93235.25;524108;28;735;-69
2024/01/06 00:28:56;;;;;;;2.90;1.40;;;;;;;6.77;58.00;93229.06;524220;28;767;-69
2024/01/06 00:29:11;;;;;;;2.63;1.60;;;;;;;6.80;57.91;93238.22;524094;28;772;-68
2024/01/06 00:29:27;;;;;;;1.67;1.57;;;;;;;6.81;57.80;93228.72;524144;28;838;-68
2024/01/06 00:29:43;;;;;;;1.70;1.60;;;;;;;6.84;57.86;93233.16;524207;28;790;-69
2024/01/06 00:29:58;;;;;;;1.95;1.65;;;;;;;6.84;57.67;93233.16;524075;28;868;-69
2024/01/06 00:30:14;;;;;;;1.87;1.70;;;;;;;6.86;57.57;93230.63;524146;28;861;-69
2024/01/06 00:30:29;;;;;;;1.83;1.60;;;;;;;6.89;57.51;93226.81;524003;28;790;-69
2024/01/06 00:30:45;;;;;;;1.87;1.53;;;;;;;6.91;57.24;93234.53;524241;28;1164;-69
2024/01/06 00:31:00;;;;;;;2.92;1.73;;;;;;;6.85;57.37;93229.16;524192;28;821;-69
2024/01/06 00:31:19;;;;;;;2.67;1.73;;;;;;;6.79;57.40;93225.78;524216;28;894;-69
2024/01/06 00:31:35;;;;;;;1.70;1.60;;;;;;;6.72;57.82;93227.16;524107;28;890;-69
2024/01/06 00:31:50;;;;;;;2.10;1.70;;;;;;;6.73;57.80;93230.66;524089;28;778;-69
2024/01/06 00:32:06;;;;;;;3.95;1.80;;;;;;;6.73;57.78;93230.66;524187;28;794;-69
2024/01/06 00:32:21;;;;;;;4.43;1.80;;;;;;;6.72;57.94;93221.66;524094;28;892;-69
2024/01/06 00:32:37;;;;;;;3.33;1.70;;;;;;;6.73;57.87;93230.66;524204;28;889;-69
2024/01/06 00:32:52;;;;;;;2.72;1.80;;;;;;;6.74;57.81;93229.38;524131;28;798;-69
2024/01/06 00:33:07;;;;;;;2.60;1.97;;;;;;;6.76;58.14;93232.31;524192;28;1136;-69
2024/01/06 00:33:23;;;;;;;2.10;1.80;;;;;;;6.74;57.94;93243.09;524069;28;944;-69
2024/01/06 00:33:38;;;;;;;2.33;1.90;;;;;;;6.72;57.97;93237.38;524161;28;762;-69
2024/01/06 00:33:54;;;;;;;3.17;2.23;;;;;;;6.69;57.70;93244.66;524187;28;925;-69
2024/01/06 00:34:09;;;;;;;4.43;2.67;;;;;;;6.67;58.08;93238.97;524137;28;790;-69
2024/01/06 00:34:25;;;;;;;4.43;2.70;;;;;;;6.67;58.33;93238.25;524200;28;830;-69
2024/01/06 00:34:40;;;;;;;3.33;2.40;;;;;;;6.68;57.94;93236.97;523993;28;996;-69
2024/01/06 00:34:55;;;;;;;3.08;2.30;;;;;;;6.70;58.02;93237.19;524214;28;834;-69
2024/01/06 00:35:11;;;;;;;3.10;2.50;;;;;;;6.74;57.99;93240.34;524140;28;833;-69
2024/01/06 00:35:26;;;;;;;2.97;2.42;;;;;;;6.77;57.97;93233.81;524168;28;814;-69
2024/01/06 00:35:42;;;;;;;3.33;2.30;;;;;;;6.79;57.75;93240.25;524183;28;758;-69
2024/01/06 00:35:57;;;;;;;4.38;2.78;;;;;;;6.74;58.15;93237.59;524126;28;766;-69
2024/01/06 00:36:13;;;;;;;4.37;3.27;;;;;;;6.81;58.10;93239.72;524170;28;775;-69
2024/01/06 00:36:28;;;;;;;4.35;3.42;;;;;;;6.82;58.10;93238.44;523927;28;838;-68
2024/01/06 00:36:44;;;;;;;5.80;3.80;;;;;;;6.81;58.35;93243.19;522001;28;837;-69
2024/01/06 00:36:59;;;;;;;6.37;4.27;;;;;;;6.75;59.19;93242.56;521888;28;1012;-69
2024/01/06 00:37:15;;;;;;;6.35;4.40;;;;;;;6.70;59.33;93237.19;521917;28;814;-69
2024/01/06 00:37:30;;;;;;;7.50;4.20;;;;;;;6.65;59.56;93238.00;521827;28;813;-69
2024/01/06 00:37:45;;;;;;;6.85;4.45;;;;;;;6.64;59.64;93240.03;521987;28;865;-69
2024/01/06 00:38:01;;;;;;;5.70;4.40;;;;;;;6.64;59.70;93242.03;521937;28;889;-69
2024/01/06 00:38:17;;;;;;;8.57;4.85;;;;;;;6.62;59.85;93239.84;522298;28;786;-69
2024/01/06 00:38:32;;;;;;;9.97;5.77;;;;;;;6.62;60.00;93239.09;523986;28;833;-69
2024/01/06 00:38:47;;;;;;;21.25;14.20;;;;;;;6.59;60.10;93231.91;524055;28;833;-68
2024/01/06 00:39:03;;;;;;;49.33;30.43;;;;;;;6.59;59.72;93234.66;524215;28;897;-69
2024/01/06 00:39:20;;;;;;;39.70;24.25;;;;;;;6.58;59.90;93231.16;524076;28;774;-69
2024/01/06 00:39:35;;;;;;;21.25;13.55;;;;;;;6.60;60.00;93236.13;524209;28;849;-69
2024/01/06 00:39:51;;;;;;;21.52;13.18;;;;;;;6.56;60.26;93236.44;524132;28;783;-69
2024/01/06 00:40:07;;;;;;;16.63;10.03;;;;;;;6.57;60.32;93237.19;524089;28;905;-69
2024/01/06 00:40:22;;;;;;;17.70;11.13;;;;;;;6.56;60.38;93233.69;524097;28;897;-69
2024/01/06 00:40:38;;;;;;;14.25;9.50;;;;;;;6.56;60.36;93228.22;524120;28;825;-69
2024/01/06 00:40:53;;;;;;;10.30;7.67;;;;;;;6.57;60.34;93229.69;524210;28;809;-69
2024/01/06 00:41:09;;;;;;;13.27;8.93;;;;;;;6.56;60.20;93224.75;524163;28;755;-69
2024/01/06 00:41:24;;;;;;;16.87;10.53;;;;;;;6.55;60.46;93218.53;523947;28;802;-69
2024/01/06 00:41:39;;;;;;;17.98;11.85;;;;;;;6.54;60.63;93227.28;523885;28;873;-69
2024/01/06 00:41:55;;;;;;;16.60;11.43;;;;;;;6.45;61.09;93220.22;524032;28;758;-69
2024/01/06 00:42:11;;;;;;;11.38;7.72;;;;;;;6.38;60.95;93215.38;523907;28;798;-69
2024/01/06 00:42:26;;;;;;;8.77;4.40;;;;;;;6.28;60.91;93214.28;524036;28;806;-69
2024/01/06 00:42:41;;;;;;;7.60;4.10;;;;;;;6.22;60.87;93213.66;523972;28;1118;-69
2024/01/06 00:42:57;;;;;;;6.90;4.83;;;;;;;6.18;60.85;93220.72;523990;28;985;-69
2024/01/06 00:43:12;;;;;;;8.52;6.13;;;;;;;6.19;60.94;93206.50;524025;28;932;-69
2024/01/06 00:43:28;;;;;;;13.70;9.47;;;;;;;6.20;61.01;93218.19;524108;28;833;-69
2024/01/06 00:43:43;;;;;;;18.10;11.33;;;;;;;6.22;61.23;93213.66;524191;28;915;-69
2024/01/06 00:43:59;;;;;;;14.15;9.40;;;;;;;6.26;61.21;93214.06;524107;28;751;-69
2024/01/06 00:44:14;;;;;;;11.27;7.77;;;;;;;6.30;61.01;93216.53;524102;28;786;-69
2024/01/06 00:44:30;;;;;;;13.43;9.00;;;;;;;6.33;60.98;93213.44;524046;28;862;-69
2024/01/06 00:44:45;;;;;;;14.40;9.90;;;;;;;6.36;60.99;93219.88;524159;28;822;-69
2024/01/06 00:45:00;;;;;;;13.48;9.20;;;;;;;6.37;60.97;93215.88;524032;28;813;-69
2024/01/06 00:45:16;;;;;;;14.10;9.43;;;;;;;6.38;61.11;93220.09;524174;28;762;-69
2024/01/06 00:45:32;;;;;;;14.38;9.55;;;;;;;6.38;61.38;93220.09;524095;28;868;-69
2024/01/06 00:45:48;;;;;;;11.18;8.05;;;;;;;6.37;61.45;93213.13;524032;28;750;-69
2024/01/06 00:46:03;;;;;;;9.63;7.50;;;;;;;6.37;61.41;93216.63;524067;28;1918;-69
2024/01/06 00:46:18;;;;;;;11.05;8.05;;;;;;;6.39;61.38;93211.34;524064;28;829;-69
2024/01/06 00:46:34;;;;;;;10.97;8.20;;;;;;;6.41;61.32;93214.28;524185;28;857;-69
2024/01/06 00:46:49;;;;;;;11.90;8.60;;;;;;;6.43;61.22;93211.03;524084;28;975;-69
2024/01/06 00:47:05;;;;;;;15.70;10.43;;;;;;;6.43;61.26;93214.50;524113;28;763;-69
2024/01/06 00:47:23;;;;;;;17.97;11.53;;;;;;;6.45;61.40;93214.00;524084;28;794;-69
2024/01/06 00:47:39;;;;;;;16.40;10.77;;;;;;;6.46;61.46;93216.19;524054;28;830;-69
2024/01/06 00:47:54;;;;;;;15.93;10.87;;;;;;;6.47;61.57;93214.94;524164;28;794;-69
2024/01/06 00:48:10;;;;;;;12.23;8.98;;;;;;;6.47;61.45;93208.72;524141;28;838;-69
2024/01/06 00:48:25;;;;;;;8.23;6.73;;;;;;;6.40;60.98;93217.56;524046;28;1103;-69
2024/01/06 00:48:41;;;;;;;7.65;5.35;;;;;;;6.37;60.81;93213.13;524024;28;881;-69
2024/01/06 00:48:57;;;;;;;11.77;6.95;;;;;;;6.34;60.70;93211.47;524125;28;905;-69
2024/01/06 00:49:12;;;;;;;14.67;9.27;;;;;;;6.33;60.67;93213.44;524089;28;873;-68
2024/01/06 00:49:27;;;;;;;9.18;6.03;;;;;;;6.36;60.85;93211.66;524113;28;834;-68
2024/01/06 00:49:43;;;;;;;5.83;4.00;;;;;;;6.37;60.76;93207.66;524131;28;987;-68
2024/01/06 00:49:58;;;;;;;6.87;4.73;;;;;;;6.38;60.63;93207.13;524016;28;767;-69
2024/01/06 00:50:14;;;;;;;7.43;4.57;;;;;;;6.40;60.63;93206.59;524148;28;861;-69
2024/01/06 00:50:29;;;;;;;5.70;3.77;;;;;;;6.39;60.90;93205.84;523977;28;850;-69
2024/01/06 00:50:45;;;;;;;3.83;3.15;;;;;;;6.38;60.91;93206.38;524168;28;817;-69
2024/01/06 00:51:00;;;;;;;3.70;3.10;;;;;;;6.39;61.00;93205.13;524122;28;866;-69
2024/01/06 00:51:16;;;;;;;3.13;2.70;;;;;;;6.39;60.67;93205.84;524083;28;1112;-69
2024/01/06 00:51:31;;;;;;;2.73;2.40;;;;;;;6.40;60.86;93207.34;524059;28;851;-69
2024/01/06 00:51:46;;;;;;;3.70;2.45;;;;;;;6.42;60.64;93204.06;524187;28;810;-69
2024/01/06 00:52:02;;;;;;;3.83;2.57;;;;;;;6.43;60.77;93208.28;524105;28;909;-69
2024/01/06 00:52:18;;;;;;;3.15;2.60;;;;;;;6.43;60.77;93205.56;524137;28;798;-69
2024/01/06 00:52:33;;;;;;;3.53;2.67;;;;;;;6.43;60.52;93203.53;524072;28;874;-69
2024/01/06 00:52:52;;;;;;;3.23;2.87;;;;;;;6.23;60.63;93176.75;524050;28;857;-69
2024/01/06 00:53:07;;;;;;;3.45;2.97;;;;;;;6.42;60.34;93204.06;524170;28;901;-69
2024/01/06 00:53:23;;;;;;;3.42;2.72;;;;;;;6.41;60.13;93197.13;524093;28;813;-69
2024/01/06 00:53:38;;;;;;;2.57;2.37;;;;;;;6.42;60.14;93204.81;524104;28;770;-69
2024/01/06 00:53:53;;;;;;;3.15;2.38;;;;;;;6.44;60.02;93204.28;524151;28;778;-69
2024/01/06 00:54:09;;;;;;;4.20;2.43;;;;;;;6.38;59.65;93198.91;524046;28;929;-69
2024/01/06 00:54:24;;;;;;;3.30;1.87;;;;;;;6.36;59.54;93197.97;524159;28;789;-69
2024/01/06 00:54:40;;;;;;;2.17;1.77;;;;;;;6.32;59.64;93195.53;524101;28;830;-69
2024/01/06 00:54:55;;;;;;;1.97;1.77;;;;;;;6.32;59.89;93189.31;524151;28;783;-69
2024/01/06 00:55:11;;;;;;;2.13;1.80;;;;;;;6.30;59.67;93187.09;523980;28;913;-69
2024/01/06 00:55:26;;;;;;;2.53;1.87;;;;;;;6.33;59.38;93193.50;524096;28;866;-69
2024/01/06 00:55:42;;;;;;;2.30;1.33;;;;;;;6.33;59.62;93188.78;524105;28;912;-69
2024/01/06 00:55:57;;;;;;;2.43;1.30;;;;;;;6.36;59.63;93189.72;524163;28;750;-69
2024/01/06 00:56:13;;;;;;;2.10;1.30;;;;;;;6.37;59.70;93191.19;524125;28;837;-69
2024/01/06 00:56:28;;;;;;;1.23;1.10;;;;;;;6.39;59.62;93186.66;524046;28;877;-69
2024/01/06 00:56:44;;;;;;;1.42;1.30;;;;;;;6.39;59.47;93189.41;524097;28;770;-68
2024/01/06 00:56:59;;;;;;;1.60;1.30;;;;;;;6.42;59.40;93193.09;524045;28;844;-69
2024/01/06 00:57:15;;;;;;;1.60;1.27;;;;;;;6.44;59.55;93190.56;524122;28;866;-69
2024/01/06 00:57:30;;;;;;;1.73;1.47;;;;;;;6.45;59.47;93186.56;524139;28;804;-69
2024/01/06 00:57:46;;;;;;;2.58;1.80;;;;;;;6.46;59.61;93193.50;524190;28;813;-69
2024/01/06 00:58:01;;;;;;;2.83;2.00;;;;;;;6.47;59.55;93195.00;524080;28;825;-69
2024/01/06 00:58:17;;;;;;;6.68;3.45;;;;;;;6.45;59.60;93190.06;524042;28;754;-69
2024/01/06 00:58:32;;;;;;;10.00;4.77;;;;;;;6.45;59.77;93192.06;524118;28;833;-69
2024/01/06 00:58:47;;;;;;;10.50;6.00;;;;;;;6.44;59.89;93188.56;524153;28;770;-69
2024/01/06 00:59:03;;;;;;;13.35;7.38;;;;;;;6.45;60.20;93192.06;524160;28;858;-69
2024/01/06 00:59:18;;;;;;;11.37;6.63;;;;;;;6.44;60.08;93190.56;524046;28;858;-69
2024/01/06 00:59:34;;;;;;;8.48;5.75;;;;;;;6.44;60.39;93194.06;524115;28;833;-69
2024/01/06 00:59:50;;;;;;;6.97;4.90;;;;;;;6.46;60.08;93193.50;524005;28;838;-69
2024/01/06 01:00:06;;;;;;;6.00;4.03;;;;;;;6.46;60.29;93194.25;524141;28;900;-69
2024/01/06 01:00:22;;;;;;;5.78;4.00;;;;;;;6.46;60.42;93197.00;524025;28;822;-69
2024/01/06 01:00:41;;;;;;;9.75;5.97;;;;;;;6.49;60.30;93206.19;524082;28;838;-69
2024/01/06 01:00:56;;;;;;;13.38;8.07;;;;;;;6.44;60.72;93204.28;524065;28;799;-69
2024/01/06 01:01:11;;;;;;;14.23;8.77;;;;;;;6.37;61.14;93191.19;524034;28;861;-69
2024/01/06 01:01:27;;;;;;;22.63;12.02;;;;;;;6.32;61.39;93195.53;524109;28;853;-69
2024/01/06 01:01:42;;;;;;;33.57;17.00;;;;;;;6.30;60.99;93198.06;524133;28;920;-69
2024/01/06 01:01:58;;;;;;;27.63;15.68;;;;;;;6.16;61.34;93171.91;524122;28;774;-69
2024/01/06 01:02:13;;;;;;;17.73;11.53;;;;;;;6.31;61.07;93196.78;524102;28;869;-69
2024/01/06 01:02:29;;;;;;;13.07;8.23;;;;;;;6.33;61.16;93190.78;523964;28;794;-69
2024/01/06 01:02:44;;;;;;;12.20;6.10;;;;;;;6.31;61.20;93183.09;524140;28;872;-69
2024/01/06 01:02:59;;;;;;;14.80;7.47;;;;;;;6.25;61.46;93185.19;524067;28;802;-69
2024/01/06 01:03:15;;;;;;;19.92;10.98;;;;;;;6.20;61.72;93179.81;524185;28;787;-69
2024/01/06 01:03:30;;;;;;;50.57;28.43;;;;;;;6.18;61.64;93185.06;524227;28;1104;-69
2024/01/06 01:03:46;;;;;;;62.78;34.60;;;;;;;6.14;61.82;93188.16;526175;28;778;-69
2024/01/06 01:04:01;;;;;;;43.03;23.00;;;;;;;6.13;61.85;93184.66;526177;28;777;-69
2024/01/06 01:04:17;;;;;;;37.65;20.55;;;;;;;6.13;62.02;93180.47;526170;28;817;-69
2024/01/06 01:04:32;;;;;;;28.23;16.03;;;;;;;6.13;61.87;93181.91;523976;28;1344;-69
2024/01/06 01:04:48;;;;;;;18.00;9.23;;;;;;;6.16;61.91;93176.66;524037;28;1012;-69
2024/01/06 01:05:03;;;;;;;11.13;5.30;;;;;;;6.17;61.60;93169.91;524079;28;849;-69
2024/01/06 01:05:19;;;;;;;3.70;2.40;;;;;;;5.92;61.19;93136.47;524013;28;782;-69
2024/01/06 01:05:34;;;;;;;3.17;2.63;;;;;;;6.14;61.36;93163.47;523934;28;1092;-69
2024/01/06 01:05:50;;;;;;;3.63;2.60;;;;;;;6.16;61.13;93158.19;523979;28;846;-69
2024/01/06 01:06:05;;;;;;;6.57;3.05;;;;;;;6.16;60.95;93160.19;523955;28;1914;-69
2024/01/06 01:06:21;;;;;;;8.17;4.37;;;;;;;6.15;61.05;93158.75;523927;28;830;-69
2024/01/06 01:06:37;;;;;;;6.20;4.35;;;;;;;6.15;61.03;93164.22;523939;28;845;-69
2024/01/06 01:06:52;;;;;;;3.47;2.67;;;;;;;6.16;60.99;93166.44;523998;28;826;-69
2024/01/06 01:07:08;;;;;;;2.35;2.00;;;;;;;6.17;60.97;93165.19;523935;28;916;-69
2024/01/06 01:07:24;;;;;;;2.73;2.23;;;;;;;6.17;60.65;93162.44;524083;28;822;-69
2024/01/06 01:07:39;;;;;;;3.30;2.50;;;;;;;6.11;60.08;93162.53;523939;28;972;-69
2024/01/06 01:07:55;;;;;;;2.65;2.30;;;;;;;6.10;60.33;93163.81;523936;28;892;-69
2024/01/06 01:08:10;;;;;;;1.73;1.63;;;;;;;6.10;60.22;93169.28;523945;28;809;-69
2024/01/06 01:08:26;;;;;;;1.67;1.30;;;;;;;6.09;60.30;93167.78;524025;28;873;-69
2024/01/06 01:08:41;;;;;;;1.50;1.23;;;;;;;6.06;60.49;93166.09;524005;28;852;-69
2024/01/06 01:08:57;;;;;;;1.92;1.30;;;;;;;6.03;60.37;93171.91;524019;28;952;-69
2024/01/06 01:09:14;;;;;;;2.60;1.40;;;;;;;6.04;60.46;93178.88;523844;28;809;-69
2024/01/06 01:09:29;;;;;;;1.67;1.40;;;;;;;6.04;60.54;93182.31;523963;28;857;-69
2024/01/06 01:09:45;;;;;;;2.10;1.40;;;;;;;6.00;60.84;93181.16;523974;28;865;-69
2024/01/06 01:10:00;;;;;;;2.15;1.40;;;;;;;5.99;60.79;93172.22;523956;28;766;-69
2024/01/06 01:10:15;;;;;;;1.80;1.40;;;;;;;5.97;60.69;93182.22;524015;28;762;-69
2024/01/06 01:10:31;;;;;;;1.95;1.38;;;;;;;5.98;60.59;93186.44;523914;28;774;-69
2024/01/06 01:10:46;;;;;;;1.97;1.40;;;;;;;5.97;60.78;93193.19;523977;28;770;-69
2024/01/06 01:11:02;;;;;;;1.52;1.30;;;;;;;5.96;60.72;93189.69;523949;28;794;-69
2024/01/06 01:11:18;;;;;;;1.53;1.40;;;;;;;5.93;60.91;93198.25;523993;28;857;-69
2024/01/06 01:11:33;;;;;;;1.40;1.30;;;;;;;5.93;60.94;93192.75;523853;28;845;-69
2024/01/06 01:11:49;;;;;;;1.67;1.40;;;;;;;5.94;61.00;93197.72;523810;28;787;-69
2024/01/06 01:12:05;;;;;;;1.92;1.40;;;;;;;5.90;60.50;93193.81;523754;28;873;-69
2024/01/06 01:12:20;;;;;;;1.40;1.20;;;;;;;5.87;61.03;93198.31;523788;28;968;-69
2024/01/06 01:12:36;;;;;;;1.30;1.13;;;;;;;5.88;61.06;93196.34;523897;28;812;-69
2024/01/06 01:12:51;;;;;;;2.30;1.33;;;;;;;5.86;60.75;93199.59;523816;28;856;-69
2024/01/06 01:13:07;;;;;;;2.27;1.40;;;;;;;5.87;60.69;93201.06;523890;28;778;-69
2024/01/06 01:13:22;;;;;;;1.55;1.25;;;;;;;5.82;60.65;93199.16;523713;28;845;-69
2024/01/06 01:13:38;;;;;;;2.42;1.25;;;;;;;5.80;61.05;93198.94;523633;28;1121;-69
2024/01/06 01:13:53;;;;;;;2.33;1.30;;;;;;;5.81;60.93;93202.41;523927;28;853;-69
2024/01/06 01:14:09;;;;;;;1.60;1.33;;;;;;;5.81;61.18;93203.13;523944;28;872;-69
2024/01/06 01:14:24;;;;;;;1.37;1.13;;;;;;;5.83;60.95;93205.34;523968;28;818;-69
2024/01/06 01:14:40;;;;;;;1.20;1.08;;;;;;;5.84;60.76;93209.59;523948;28;766;-69
2024/01/06 01:14:56;;;;;;;1.30;1.20;;;;;;;5.85;61.00;93206.34;523958;28;802;-69
2024/01/06 01:15:11;;;;;;;1.60;1.30;;;;;;;5.87;60.90;93211.28;524001;28;940;-69
2024/01/06 01:15:27;;;;;;;1.38;1.20;;;;;;;5.88;60.60;93216.25;523982;28;853;-69
2024/01/06 01:15:42;;;;;;;1.40;1.30;;;;;;;5.90;60.78;93221.19;523954;28;1626;-69
2024/01/06 01:15:58;;;;;;;2.20;1.50;;;;;;;5.92;60.67;93224.91;523963;28;845;-69
2024/01/06 01:16:13;;;;;;;2.30;1.40;;;;;;;5.89;60.92;93219.75;523899;28;766;-69
2024/01/06 01:16:29;;;;;;;1.75;1.30;;;;;;;5.85;60.88;93222.78;523934;28;865;-69
2024/01/06 01:16:45;;;;;;;1.53;1.43;;;;;;;5.82;61.29;93223.06;524035;28;845;-69
2024/01/06 01:17:00;;;;;;;2.00;1.50;;;;;;;5.80;61.16;93223.59;523992;28;810;-69